createdAt,value
2023-03-28T00:00:45.947Z,2.60
2023-03-28T00:03:18.877Z,2.60
2023-03-28T00:05:48.996Z,2.50
2023-03-28T00:08:17.711Z,2.50
2023-03-28T00:10:46.335Z,2.50
2023-03-28T00:13:15.407Z,2.50
2023-03-28T00:15:43.822Z,2.50
2023-03-28T00:18:12.545Z,2.40
2023-03-28T00:20:43.905Z,2.40
2023-03-28T00:23:12.860Z,2.40
2023-03-28T00:25:42.160Z,2.40
2023-03-28T00:28:10.451Z,2.30
2023-03-28T00:30:38.488Z,2.30
2023-03-28T00:33:06.611Z,2.30
2023-03-28T00:35:36.042Z,2.30
2023-03-28T00:38:05.556Z,2.20
2023-03-28T00:40:38.638Z,2.20
2023-03-28T00:43:06.603Z,2.20
2023-03-28T00:45:34.909Z,2.20
2023-03-28T00:48:14.274Z,2.20
2023-03-28T00:50:48.738Z,2.10
2023-03-28T00:53:21.546Z,2.10
2023-03-28T00:55:52.601Z,2.10
2023-03-28T00:58:25.215Z,2.00
2023-03-28T01:00:54.929Z,2.00
2023-03-28T01:03:27.609Z,2.00
2023-03-28T01:05:56.569Z,2.00
2023-03-28T01:08:30.384Z,2.00
2023-03-28T01:10:58.649Z,2.00
2023-03-28T01:13:31.317Z,2.00
2023-03-28T01:16:00.191Z,2.00
2023-03-28T01:18:34.982Z,1.90
2023-03-28T01:21:34.783Z,1.90
2023-03-28T01:24:29.840Z,1.90
2023-03-28T01:27:03.121Z,1.90
2023-03-28T01:30:04.534Z,1.90
2023-03-28T01:32:55.077Z,1.90
2023-03-28T01:35:58.761Z,1.80
2023-03-28T01:38:35.534Z,1.80
2023-03-28T01:41:08.035Z,1.80
2023-03-28T01:43:44.680Z,1.80
2023-03-28T01:46:18.674Z,1.70
2023-03-28T01:48:57.898Z,1.70
2023-03-28T01:51:35.919Z,1.70
2023-03-28T01:54:12.556Z,1.70
2023-03-28T01:56:49.115Z,1.60
2023-03-28T01:59:22.343Z,1.60
2023-03-28T02:01:54.946Z,1.60
2023-03-28T02:04:26.691Z,1.60
2023-03-28T02:06:56.868Z,1.60
2023-03-28T02:09:27.551Z,1.50
2023-03-28T02:12:00.879Z,1.50
2023-03-28T02:14:35.433Z,1.50
2023-03-28T02:17:15.735Z,1.50
2023-03-28T02:19:47.034Z,1.40
2023-03-28T02:22:21.109Z,1.40
2023-03-28T02:24:52.097Z,1.40
2023-03-28T02:27:22.530Z,1.40
2023-03-28T02:29:50.988Z,1.30
2023-03-28T02:32:21.659Z,1.30
2023-03-28T02:34:52.970Z,1.40
2023-03-28T02:37:31.556Z,1.30
2023-03-28T02:40:26.316Z,1.30
2023-03-28T02:43:23.216Z,1.30
2023-03-28T02:46:17.552Z,1.30
2023-03-28T02:49:03.768Z,1.30
2023-03-28T02:51:36.793Z,1.30
2023-03-28T02:54:20.618Z,1.20
2023-03-28T02:57:01.416Z,1.20
2023-03-28T02:59:35.848Z,1.20
2023-03-28T03:02:04.654Z,1.20
2023-03-28T03:04:32.861Z,1.20
2023-03-28T03:07:02.585Z,1.20
2023-03-28T03:09:30.817Z,1.20
2023-03-28T03:12:00.081Z,1.20
2023-03-28T03:14:28.362Z,1.20
2023-03-28T03:16:56.282Z,1.20
2023-03-28T03:19:24.274Z,1.20
2023-03-28T03:21:54.105Z,1.20
2023-03-28T03:24:22.426Z,1.20
2023-03-28T03:26:50.278Z,1.20
2023-03-28T03:29:19.611Z,1.10
2023-03-28T03:31:47.932Z,1.20
2023-03-28T03:34:16.138Z,1.10
2023-03-28T03:36:44.038Z,1.10
2023-03-28T03:39:11.944Z,1.10
2023-03-28T03:41:39.923Z,1.10
2023-03-28T03:44:10.598Z,1.10
2023-03-28T03:46:39.917Z,1.10
2023-03-28T03:49:09.375Z,1.10
2023-03-28T03:51:37.353Z,1.10
2023-03-28T03:54:05.243Z,1.10
2023-03-28T03:56:33.296Z,1.10
2023-03-28T03:59:01.282Z,1.10
2023-03-28T04:01:29.875Z,1.10
2023-03-28T04:03:59.257Z,1.10
2023-03-28T04:06:29.508Z,1.10
2023-03-28T04:08:57.423Z,1.10
2023-03-28T04:11:25.597Z,1.10
2023-03-28T04:13:53.532Z,1.10
2023-03-28T04:16:21.554Z,1.10
2023-03-28T04:18:52.864Z,1.10
2023-03-28T04:21:27.587Z,1.10
2023-03-28T04:23:56.379Z,1.10
2023-03-28T04:26:26.965Z,1.10
2023-03-28T04:28:55.140Z,1.10
2023-03-28T04:31:29.888Z,1.00
2023-03-28T04:34:00.452Z,1.10
2023-03-28T04:36:30.013Z,1.00
2023-03-28T04:39:02.117Z,1.00
2023-03-28T04:41:32.166Z,1.00
2023-03-28T04:44:00.183Z,1.00
2023-03-28T04:46:28.732Z,1.00
2023-03-28T04:48:57.136Z,1.00
2023-03-28T04:51:25.478Z,0.90
2023-03-28T04:53:54.810Z,1.00
2023-03-28T04:56:23.433Z,1.00
2023-03-28T04:58:51.290Z,1.00
2023-03-28T05:01:19.301Z,1.00
2023-03-28T05:03:47.266Z,1.00
2023-03-28T05:06:15.393Z,1.00
2023-03-28T05:08:43.753Z,0.90
2023-03-28T05:11:13.033Z,0.90
2023-03-28T05:13:41.019Z,0.90
2023-03-28T05:16:09.411Z,1.00
2023-03-28T05:18:37.363Z,0.90
2023-03-28T05:21:06.106Z,0.90
2023-03-28T05:23:33.979Z,0.90
2023-03-28T05:26:02.595Z,0.90
2023-03-28T05:28:32.479Z,0.90
2023-03-28T05:31:00.841Z,0.90
2023-03-28T05:33:29.836Z,0.90
2023-03-28T05:35:57.832Z,0.80
2023-03-28T05:38:26.184Z,0.90
2023-03-28T05:40:54.222Z,0.90
2023-03-28T05:43:22.202Z,0.90
2023-03-28T05:45:51.639Z,0.90
2023-03-28T05:48:19.856Z,0.90
2023-03-28T05:50:50.363Z,0.90
2023-03-28T05:53:18.330Z,0.90
2023-03-28T05:55:46.247Z,0.90
2023-03-28T05:58:14.189Z,1.00
2023-03-28T06:00:44.648Z,1.00
2023-03-28T06:03:17.440Z,1.00
2023-03-28T06:05:46.093Z,1.00
2023-03-28T06:08:13.979Z,1.00
2023-03-28T06:10:42.024Z,1.10
2023-03-28T06:13:09.964Z,1.10
2023-03-28T06:15:37.973Z,1.10
2023-03-28T06:18:06.051Z,1.20
2023-03-28T06:20:35.315Z,1.20
2023-03-28T06:23:04.066Z,1.30
2023-03-28T06:25:32.079Z,1.30
2023-03-28T06:28:00.001Z,1.30
2023-03-28T06:30:28.038Z,1.40
2023-03-28T06:32:56.125Z,1.40
2023-03-28T06:35:23.986Z,1.50
2023-03-28T06:37:53.311Z,1.50
2023-03-28T06:40:21.255Z,1.60
2023-03-28T06:42:49.429Z,1.70
2023-03-28T06:45:17.462Z,1.70
2023-03-28T06:47:45.955Z,1.80
2023-03-28T06:50:13.912Z,1.80
2023-03-28T06:52:41.792Z,1.90
2023-03-28T06:55:11.280Z,1.90
2023-03-28T06:57:39.268Z,2.00
2023-03-28T07:00:08.707Z,2.10
2023-03-28T07:02:36.681Z,2.10
2023-03-28T07:05:05.008Z,2.20
2023-03-28T07:07:33.069Z,2.20
2023-03-28T07:10:01.119Z,2.30
2023-03-28T07:12:30.353Z,2.40
2023-03-28T07:14:58.230Z,2.50
2023-03-28T07:17:26.256Z,2.50
2023-03-28T07:19:54.340Z,2.60
2023-03-28T07:22:22.233Z,2.60
2023-03-28T07:24:50.197Z,2.70
2023-03-28T07:27:18.102Z,2.80
2023-03-28T07:29:47.500Z,2.90
2023-03-28T07:32:15.848Z,3.00
2023-03-28T07:34:44.234Z,3.10
2023-03-28T07:37:12.206Z,3.30
2023-03-28T07:39:41.865Z,3.40
2023-03-28T07:42:11.349Z,3.60
2023-03-28T07:44:42.082Z,3.70
2023-03-28T07:47:12.052Z,3.90
2023-03-28T07:49:41.057Z,4.10
2023-03-28T07:52:09.120Z,4.20
2023-03-28T07:54:37.309Z,4.40
2023-03-28T07:57:05.743Z,4.50
2023-03-28T07:59:34.026Z,4.60
2023-03-28T08:02:02.710Z,4.70
2023-03-28T08:04:32.107Z,4.80
2023-03-28T08:07:00.239Z,4.80
2023-03-28T08:09:28.396Z,4.90
2023-03-28T08:11:56.325Z,5.00
2023-03-28T08:14:24.258Z,5.10
2023-03-28T08:16:52.808Z,5.20
2023-03-28T08:19:21.067Z,5.30
2023-03-28T08:21:50.362Z,5.50
2023-03-28T08:24:29.004Z,5.60
2023-03-28T08:27:03.255Z,5.70
2023-03-28T08:29:31.385Z,5.90
2023-03-28T08:31:59.357Z,6.10
2023-03-28T08:34:27.279Z,6.20
2023-03-28T08:36:57.600Z,6.40
2023-03-28T08:39:25.945Z,6.50
2023-03-28T08:42:10.203Z,6.70
2023-03-28T08:44:57.104Z,6.80
2023-03-28T08:47:30.787Z,7.00
2023-03-28T08:50:02.529Z,7.20
2023-03-28T08:52:32.406Z,7.30
2023-03-28T08:55:06.937Z,7.50
2023-03-28T08:57:36.853Z,7.70
2023-03-28T09:00:12.684Z,7.90
2023-03-28T09:02:42.454Z,8.20
2023-03-28T09:05:23.061Z,8.50
2023-03-28T09:08:01.071Z,8.90
2023-03-28T09:10:32.603Z,9.30
2023-03-28T09:13:17.775Z,9.60
2023-03-28T09:16:03.130Z,9.70
2023-03-28T09:18:43.477Z,9.90
2023-03-28T09:21:16.801Z,10.10
2023-03-28T09:24:03.041Z,10.00
2023-03-28T09:26:35.176Z,10.00
2023-03-28T09:29:05.751Z,9.90
2023-03-28T09:31:36.929Z,10.00
2023-03-28T09:34:07.125Z,10.30
2023-03-28T09:36:49.033Z,10.60
2023-03-28T09:39:26.975Z,11.00
2023-03-28T09:42:01.078Z,11.70
2023-03-28T09:44:43.647Z,12.00
2023-03-28T09:47:19.250Z,12.70
2023-03-28T09:49:47.209Z,13.80
2023-03-28T09:52:17.165Z,14.30
2023-03-28T09:54:47.226Z,15.00
2023-03-28T09:57:15.716Z,16.10
2023-03-28T09:59:44.059Z,17.40
2023-03-28T10:02:28.809Z,18.70
2023-03-28T10:04:57.019Z,19.90
2023-03-28T10:07:33.870Z,20.70
2023-03-28T10:10:17.252Z,21.20
2023-03-28T10:12:48.988Z,21.50
2023-03-28T10:15:51.314Z,21.40
2023-03-28T10:18:21.894Z,21.20
2023-03-28T10:20:51.263Z,21.00
2023-03-28T10:23:22.356Z,20.60
2023-03-28T10:25:54.534Z,20.50
2023-03-28T10:28:30.940Z,20.40
2023-03-28T10:31:01.461Z,20.30
2023-03-28T10:33:34.166Z,20.00
2023-03-28T10:36:04.050Z,20.00
2023-03-28T10:38:36.812Z,20.20
2023-03-28T10:41:08.534Z,20.50
2023-03-28T10:43:39.378Z,20.90
2023-03-28T10:46:12.987Z,21.50
2023-03-28T10:48:43.456Z,22.30
2023-03-28T10:51:18.708Z,22.90
2023-03-28T10:54:07.797Z,22.80
2023-03-28T10:56:42.385Z,22.70
2023-03-28T10:59:30.924Z,22.70
2023-03-28T11:02:16.167Z,22.20
2023-03-28T11:05:00.476Z,21.80
2023-03-28T11:07:35.324Z,21.60
2023-03-28T11:10:12.524Z,21.10
2023-03-28T11:12:58.968Z,20.40
2023-03-28T11:15:32.409Z,19.80
2023-03-28T11:18:12.055Z,19.30
2023-03-28T11:20:46.936Z,19.00
2023-03-28T11:23:31.285Z,18.90
2023-03-28T11:26:06.620Z,18.70
2023-03-28T11:28:48.307Z,18.40
2023-03-28T11:31:20.692Z,17.90
2023-03-28T11:33:55.880Z,17.50
2023-03-28T11:36:29.549Z,17.20
2023-03-28T11:39:02.138Z,16.80
2023-03-28T11:41:34.595Z,16.20
2023-03-28T11:44:08.334Z,15.70
2023-03-28T11:46:39.989Z,15.10
2023-03-28T11:49:18.220Z,14.30
2023-03-28T11:51:52.054Z,13.70
2023-03-28T11:54:23.433Z,13.20
2023-03-28T11:56:56.060Z,12.90
2023-03-28T11:59:31.910Z,12.80
2023-03-28T12:02:08.547Z,12.70
2023-03-28T12:04:46.033Z,12.70
2023-03-28T12:07:19.857Z,12.60
2023-03-28T12:09:59.765Z,12.50
2023-03-28T12:12:31.842Z,12.40
2023-03-28T12:15:06.151Z,12.20
2023-03-28T12:17:37.310Z,12.10
2023-03-28T12:20:13.197Z,12.00
2023-03-28T12:22:44.451Z,11.90
2023-03-28T12:25:15.589Z,11.70
2023-03-28T12:27:56.883Z,11.50
2023-03-28T12:30:33.933Z,11.50
2023-03-28T12:33:11.650Z,11.50
2023-03-28T12:35:45.400Z,11.60
2023-03-28T12:38:24.401Z,11.50
2023-03-28T12:40:59.591Z,11.50
2023-03-28T12:43:31.838Z,11.40
2023-03-28T12:46:04.279Z,11.40
2023-03-28T12:48:37.267Z,11.40
2023-03-28T12:51:11.775Z,11.30
2023-03-28T12:53:46.666Z,11.20
2023-03-28T12:56:16.628Z,11.30
2023-03-28T12:58:48.730Z,11.30
2023-03-28T13:01:30.975Z,11.50
2023-03-28T13:04:10.981Z,11.60
2023-03-28T13:06:47.438Z,11.70
2023-03-28T13:09:41.398Z,11.80
2023-03-28T13:12:26.280Z,11.90
2023-03-28T13:15:25.309Z,12.00
2023-03-28T13:18:32.589Z,12.10
2023-03-28T13:21:02.838Z,12.20
2023-03-28T13:23:37.403Z,12.30
2023-03-28T13:26:07.011Z,12.30
2023-03-28T13:28:44.764Z,12.40
2023-03-28T13:31:21.560Z,12.60
2023-03-28T13:33:54.599Z,12.60
2023-03-28T13:36:28.185Z,12.70
2023-03-28T13:39:08.429Z,12.70
2023-03-28T13:41:57.125Z,12.70
2023-03-28T13:44:32.213Z,12.70
2023-03-28T13:47:00.519Z,12.70
2023-03-28T13:49:41.622Z,12.70
2023-03-28T13:52:15.435Z,12.80
2023-03-28T13:54:43.525Z,12.90
2023-03-28T13:57:17.438Z,12.90
2023-03-28T13:59:52.991Z,12.90
2023-03-28T14:02:23.301Z,13.00
2023-03-28T14:04:54.991Z,13.10
2023-03-28T14:07:27.619Z,13.20
2023-03-28T14:09:57.444Z,13.20
2023-03-28T14:12:28.945Z,13.10
2023-03-28T14:14:59.234Z,13.10
2023-03-28T14:17:30.468Z,13.20
2023-03-28T14:20:02.537Z,13.30
2023-03-28T14:22:32.595Z,13.40
2023-03-28T14:25:03.226Z,13.50
2023-03-28T14:27:38.981Z,13.60
2023-03-28T14:30:19.524Z,13.70
2023-03-28T14:32:58.737Z,13.50
2023-03-28T14:35:30.108Z,13.50
2023-03-28T14:38:00.960Z,13.30
2023-03-28T14:40:32.496Z,13.10
2023-03-28T14:43:04.550Z,13.00
2023-03-28T14:45:37.580Z,12.90
2023-03-28T14:48:07.861Z,12.80
2023-03-28T14:50:39.482Z,12.70
2023-03-28T14:53:10.366Z,12.80
2023-03-28T14:55:38.624Z,12.70
2023-03-28T14:58:07.650Z,12.60
2023-03-28T15:00:38.572Z,12.60
2023-03-28T15:03:09.492Z,12.60
2023-03-28T15:05:39.207Z,12.40
2023-03-28T15:08:08.782Z,12.20
2023-03-28T15:10:36.922Z,12.00
2023-03-28T15:13:08.374Z,11.90
2023-03-28T15:15:38.716Z,11.80
2023-03-28T15:18:11.835Z,11.70
2023-03-28T15:20:45.562Z,11.60
2023-03-28T15:23:17.970Z,11.60
2023-03-28T15:25:46.483Z,11.50
2023-03-28T15:28:18.526Z,11.50
2023-03-28T15:30:48.604Z,11.60
2023-03-28T15:33:19.774Z,11.60
2023-03-28T15:35:49.435Z,11.70
2023-03-28T15:38:21.548Z,11.60
2023-03-28T15:40:51.442Z,11.60
2023-03-28T15:43:58.700Z,11.60
2023-03-28T15:46:31.938Z,11.60
2023-03-28T15:49:01.786Z,11.60
2023-03-28T15:51:32.123Z,11.60
2023-03-28T15:54:00.522Z,11.60
2023-03-28T15:56:30.602Z,11.60
2023-03-28T15:59:03.095Z,11.60
2023-03-28T16:01:32.731Z,11.50
2023-03-28T16:04:22.424Z,11.40
2023-03-28T16:06:57.002Z,11.40
2023-03-28T16:09:26.515Z,11.30
2023-03-28T16:12:00.513Z,11.20
2023-03-28T16:14:28.637Z,11.20
2023-03-28T16:16:57.554Z,11.10
2023-03-28T16:19:27.282Z,11.10
2023-03-28T16:21:59.024Z,11.00
2023-03-28T16:24:28.599Z,10.90
2023-03-28T16:26:56.787Z,10.90
2023-03-28T16:29:24.717Z,10.90
2023-03-28T16:31:52.569Z,10.90
2023-03-28T16:34:20.454Z,10.80
2023-03-28T16:36:48.815Z,10.80
2023-03-28T16:39:18.141Z,10.80
2023-03-28T16:41:46.226Z,10.80
2023-03-28T16:44:14.141Z,10.80
2023-03-28T16:46:42.083Z,10.80
2023-03-28T16:49:10.208Z,10.80
2023-03-28T16:51:38.154Z,10.70
2023-03-28T16:54:06.666Z,10.70
2023-03-28T16:56:36.227Z,10.60
2023-03-28T16:59:05.698Z,10.60
2023-03-28T17:01:33.965Z,10.60
2023-03-28T17:04:01.939Z,10.50
2023-03-28T17:06:29.968Z,10.40
2023-03-28T17:08:58.841Z,10.40
2023-03-28T17:11:27.543Z,10.40
2023-03-28T17:13:57.940Z,10.30
2023-03-28T17:16:26.183Z,10.30
2023-03-28T17:18:54.688Z,10.30
2023-03-28T17:21:22.564Z,10.20
2023-03-28T17:23:52.686Z,10.20
2023-03-28T17:26:21.079Z,10.20
2023-03-28T17:28:50.734Z,10.20
2023-03-28T17:31:21.676Z,10.10
2023-03-28T17:33:49.764Z,10.00
2023-03-28T17:36:21.718Z,10.00
2023-03-28T17:38:50.940Z,10.00
2023-03-28T17:41:18.916Z,10.00
2023-03-28T17:43:46.856Z,9.90
2023-03-28T17:46:14.858Z,9.90
2023-03-28T17:48:44.419Z,9.90
2023-03-28T17:51:12.966Z,9.80
2023-03-28T17:53:42.867Z,9.80
2023-03-28T17:56:12.063Z,9.80
2023-03-28T17:58:40.212Z,9.70
2023-03-28T18:01:10.329Z,9.70
2023-03-28T18:03:39.025Z,9.70
2023-03-28T18:06:09.446Z,9.60
2023-03-28T18:08:37.598Z,9.60
2023-03-28T18:11:07.835Z,9.60
2023-03-28T18:13:37.243Z,9.60
2023-03-28T18:16:09.191Z,9.50
2023-03-28T18:18:37.813Z,9.50
2023-03-28T18:21:07.598Z,9.50
2023-03-28T18:23:37.488Z,9.50
2023-03-28T18:26:06.637Z,9.50
2023-03-28T18:28:34.797Z,9.50
2023-03-28T18:31:09.076Z,9.50
2023-03-28T18:33:37.237Z,9.50
2023-03-28T18:36:05.847Z,9.50
2023-03-28T18:38:38.238Z,9.50
2023-03-28T18:41:08.241Z,9.50
2023-03-28T18:43:37.203Z,9.50
2023-03-28T18:46:07.723Z,9.50
2023-03-28T18:48:36.422Z,9.50
2023-03-28T18:51:06.304Z,9.40
2023-03-28T18:53:34.760Z,9.40
2023-03-28T18:56:04.627Z,9.40
2023-03-28T18:58:32.664Z,9.30
2023-03-28T19:01:03.773Z,9.20
2023-03-28T19:03:36.233Z,9.20
2023-03-28T19:06:04.689Z,9.10
2023-03-28T19:08:32.852Z,8.90
2023-03-28T19:11:08.359Z,8.70
2023-03-28T19:13:36.234Z,8.60
2023-03-28T19:16:06.872Z,8.40
2023-03-28T19:18:37.354Z,8.30
2023-03-28T19:21:05.964Z,8.20
2023-03-28T19:23:34.144Z,8.10
2023-03-28T19:26:03.922Z,8.00
2023-03-28T19:28:32.241Z,7.90
2023-03-28T19:31:01.530Z,7.80
2023-03-28T19:33:30.672Z,7.70
2023-03-28T19:35:58.787Z,7.70
2023-03-28T19:38:27.448Z,7.70
2023-03-28T19:40:59.051Z,7.60
2023-03-28T19:43:29.197Z,7.60
2023-03-28T19:46:02.602Z,7.50
2023-03-28T19:48:30.923Z,7.50
2023-03-28T19:50:59.048Z,7.50
2023-03-28T19:53:26.979Z,7.40
2023-03-28T19:55:56.481Z,7.40
2023-03-28T19:58:25.621Z,7.40
2023-03-28T20:00:57.817Z,7.30
2023-03-28T20:03:26.230Z,7.20
2023-03-28T20:05:54.217Z,7.20
2023-03-28T20:08:22.328Z,7.10
2023-03-28T20:10:52.523Z,7.10
2023-03-28T20:13:20.836Z,7.00
2023-03-28T20:15:48.820Z,7.00
2023-03-28T20:18:20.500Z,7.00
2023-03-28T20:20:52.706Z,7.00
2023-03-28T20:23:22.790Z,7.00
2023-03-28T20:25:52.067Z,6.90
2023-03-28T20:28:20.856Z,6.90
2023-03-28T20:30:49.042Z,6.90
2023-03-28T20:33:19.825Z,6.90
2023-03-28T20:35:53.325Z,6.90
2023-03-28T20:38:21.557Z,6.90
2023-03-28T20:40:49.519Z,6.80
2023-03-28T20:43:20.136Z,6.80
2023-03-28T20:45:53.692Z,6.70
2023-03-28T20:48:26.068Z,6.70
2023-03-28T20:50:54.890Z,6.70
2023-03-28T20:53:22.791Z,6.60
2023-03-28T20:55:59.084Z,6.60
2023-03-28T20:58:27.033Z,6.60
2023-03-28T21:00:57.195Z,6.50
2023-03-28T21:03:39.164Z,6.50
2023-03-28T21:06:08.112Z,6.50
2023-03-28T21:08:36.944Z,6.40
2023-03-28T21:11:05.004Z,6.40
2023-03-28T21:13:32.917Z,6.40
2023-03-28T21:16:01.112Z,6.30
2023-03-28T21:18:30.440Z,6.30
2023-03-28T21:20:58.553Z,6.30
2023-03-28T21:23:27.106Z,6.30
2023-03-28T21:25:55.136Z,6.30
2023-03-28T21:28:23.194Z,6.30
2023-03-28T21:30:58.584Z,6.30
2023-03-28T21:33:26.911Z,6.30
2023-03-28T21:35:57.011Z,6.30
2023-03-28T21:38:25.056Z,6.30
2023-03-28T21:40:52.929Z,6.30
2023-03-28T21:43:20.874Z,6.40
2023-03-28T21:45:49.365Z,6.30
2023-03-28T21:48:18.064Z,6.30
2023-03-28T21:50:50.660Z,6.30
2023-03-28T21:53:20.719Z,6.30
2023-03-28T21:55:49.254Z,6.30
2023-03-28T21:58:17.183Z,6.30
2023-03-28T22:00:45.120Z,6.30
2023-03-28T22:03:13.117Z,6.30
2023-03-28T22:05:42.957Z,6.30
2023-03-28T22:08:12.134Z,6.30
2023-03-28T22:10:46.765Z,6.30
2023-03-28T22:13:14.951Z,6.20
2023-03-28T22:15:43.095Z,6.20
2023-03-28T22:18:11.959Z,6.20
2023-03-28T22:20:43.508Z,6.20
2023-03-28T22:23:12.284Z,6.10
2023-03-28T22:25:42.479Z,6.20
2023-03-28T22:28:11.661Z,6.20
2023-03-28T22:30:40.570Z,6.20
2023-03-28T22:33:11.016Z,6.10
2023-03-28T22:35:39.242Z,6.10
2023-03-28T22:38:07.610Z,6.10
2023-03-28T22:40:35.637Z,6.10
2023-03-28T22:43:04.893Z,6.10
2023-03-28T22:45:33.101Z,6.10
2023-03-28T22:48:03.248Z,6.10
2023-03-28T22:50:33.468Z,6.10
2023-03-28T22:53:02.114Z,6.10
2023-03-28T22:55:30.099Z,6.10
2023-03-28T22:57:58.088Z,6.10
2023-03-28T23:00:27.342Z,6.10
2023-03-28T23:02:55.786Z,6.10
2023-03-28T23:05:23.776Z,6.10
2023-03-28T23:07:52.821Z,6.10
2023-03-28T23:10:20.831Z,6.10
2023-03-28T23:12:48.937Z,6.10
2023-03-28T23:15:17.255Z,6.10
2023-03-28T23:17:46.851Z,6.10
2023-03-28T23:20:17.051Z,6.10
2023-03-28T23:22:47.197Z,6.10
2023-03-28T23:25:17.052Z,6.10
2023-03-28T23:27:45.539Z,6.10
2023-03-28T23:30:15.500Z,6.10
2023-03-28T23:32:43.809Z,6.10
2023-03-28T23:35:13.358Z,6.10
2023-03-28T23:37:41.558Z,6.10
2023-03-28T23:40:14.591Z,6.10
2023-03-28T23:42:44.613Z,6.10
2023-03-28T23:45:14.831Z,6.10
2023-03-28T23:47:43.950Z,6.10
2023-03-28T23:50:14.208Z,6.10
2023-03-28T23:52:42.263Z,6.10
2023-03-28T23:55:10.558Z,6.10
2023-03-28T23:57:38.443Z,6.10
